Mount Lemmon, AZ

5:32 AM MST on May 25, 2015 (GMT -0700)
Davis-Monthan Air Force Base | | Change Station
CLOSE
Current Station
Airport
Location: Tucson Davis Monthan,
Elevation: 2703 ft
Nearby Weather Stations

Elev 2703 ft 32.17 °N, 110.88 °W | Updated 34 minutes ago

Clear
Clear
56 °F
Feels Like 56 °F
N
7
Wind Variable Wind from SSE

Today
High -- | Low -- °F
--% Chance of Precip.
Yesterday
High -- | Low -- °F
Precip. -- in
5:19 AM 7:21 PM
Waxing Crescent, 48% visible
Pressure 29.85 in
Visibility 10.0 miles
Clouds Clear
Dew Point 35 °F
Humidity 45%
Rainfall 0.00 in
Snow Depth Not available.
UV 0 out of 12
Pollen 4.40 out of 12
Air Quality Not available.
Flu Activity Local Activity
METAR KDMA 251158Z AUTO 15006KT 10SM CLR 13/02 A2994 RMK AO2 SLP107 T01330017 10198 20133 53004 $

More Conditions Fewer Conditions

Pressure 29.85 in
Visibility 10.0 miles
Clouds Clear
Dew Point 35 °F
Humidity 45%
Rainfall 0.00 in
Snow Depth Not available.
UV 0 out of 12
Pollen 4.40 out of 12
Air Quality Not available.
Flu Activity Local Activity
METAR KDMA 251158Z AUTO 15006KT 10SM CLR 13/02 A2994 RMK AO2 SLP107 T01330017 10198 20133 53004 $

More Conditions Fewer Conditions

10-Day Weather Forecast

Almanac

Astronomy

May. 25, 2015 Rise Set
Actual Time
Civil Twilight
Nautical Twilight
Astronomical Twilight
Moon
Length of Visible Light
Length of Day
Tomorrow will be .
, % of the Moon is Illuminated

Today's Extremes

State Highs State Lows

Community

WunderPhotos

Upload Photos

1,823,986 photos uploaded!

WunderBlogs® & News

Nearby

Air Quality

  Air Quality AQ Index Pollutant
Not available.

Snow Depth

Station Depth Elevation

Earthquake Activity

City Distance Mag. Time & Date
Minimum magnitude displayed is 2.5.

Coastal Water Temperatures

Place Temperature

Stations

Nearby Weather Stations

Station Location Temp. Windchill Dew Point Humidity Wind Precip. Elev Updated Type